createdAt,value
2018-09-06T21:15:00.475Z,13.90
2018-09-06T21:17:28.491Z,13.90
2018-09-06T21:19:56.545Z,13.80
2018-09-06T21:22:24.575Z,13.80
2018-09-06T21:24:52.700Z,13.80
2018-09-06T21:27:20.711Z,13.70
2018-09-06T21:29:48.722Z,13.70
2018-09-06T21:32:16.823Z,13.70
2018-09-06T21:34:44.847Z,13.60
2018-09-06T21:37:12.857Z,13.60
2018-09-06T21:39:40.906Z,13.50
2018-09-06T21:42:08.951Z,13.30
2018-09-06T21:44:36.960Z,13.20
2018-09-06T21:47:05.042Z,13.10
2018-09-06T21:49:33.056Z,13.00
2018-09-06T21:52:01.114Z,13.00
2018-09-06T21:54:29.230Z,12.90
2018-09-06T21:56:57.245Z,12.80
2018-09-06T21:59:25.270Z,12.80
2018-09-06T22:01:53.641Z,12.80
2018-09-06T22:04:21.663Z,12.80
2018-09-06T22:06:49.696Z,12.70
2018-09-06T22:09:17.712Z,12.80
2018-09-06T22:11:45.767Z,12.70
2018-09-06T22:14:13.864Z,12.70
2018-09-06T22:16:41.894Z,12.70
2018-09-06T22:19:09.898Z,12.70
2018-09-06T22:21:37.931Z,12.60
2018-09-06T22:24:05.968Z,12.50
2018-09-06T22:26:33.978Z,12.50
2018-09-06T22:29:01.994Z,12.50
2018-09-06T22:31:30.016Z,12.40
2018-09-06T22:33:58.023Z,12.40
2018-09-06T22:36:26.038Z,12.30
2018-09-06T22:38:54.050Z,12.30
2018-09-06T22:41:22.061Z,12.30
2018-09-06T22:43:50.080Z,12.20
2018-09-06T22:46:18.112Z,12.20
2018-09-06T22:48:46.157Z,12.20
2018-09-06T22:51:14.163Z,12.20
2018-09-06T22:53:42.178Z,12.30
2018-09-06T22:56:10.207Z,12.30
2018-09-06T22:58:38.223Z,12.30
2018-09-06T23:01:06.688Z,12.30
2018-09-06T23:03:37.037Z,12.30
2018-09-06T23:06:05.083Z,12.20
2018-09-06T23:08:33.093Z,12.20
2018-09-06T23:11:01.113Z,12.10
2018-09-06T23:13:29.114Z,12.10
2018-09-06T23:15:57.143Z,12.00
2018-09-06T23:18:25.159Z,12.00
2018-09-06T23:20:53.183Z,11.90
2018-09-06T23:23:21.199Z,11.90
2018-09-06T23:25:49.302Z,11.90
2018-09-06T23:28:17.316Z,11.90
2018-09-06T23:30:45.330Z,11.90
2018-09-06T23:33:13.390Z,11.90
2018-09-06T23:35:44.097Z,11.90
2018-09-06T23:38:12.527Z,11.80
2018-09-06T23:40:44.807Z,11.90
2018-09-06T23:43:12.830Z,11.90
2018-09-06T23:45:40.835Z,12.00
2018-09-06T23:48:08.867Z,12.00
2018-09-06T23:50:36.879Z,12.10
2018-09-06T23:53:04.893Z,12.10
2018-09-06T23:55:32.906Z,12.00
2018-09-06T23:58:00.923Z,12.10
